Terminal Aerodrome Forecast
Issued by NWS Pueblo, CO

Home | Current Version | Previous Version | Text Only | Print | Product List | Glossary On
Versions: 1 2 3 4 5 6 7 8 9 10 11 12 13 14 15
000
FTUS45 KPUB 010218 AAB
TAFPUB
TAF AMD
KPUB 010218Z 0102/0124 33014KT P6SM VCSH SCT090 BKN150
     FM010400 34008KT P6SM VCSH SCT080 BKN120
     FM010600 35006KT P6SM SCT080 BKN150
     FM010800 VRB04KT P6SM SCT080 BKN150
     FM012000 12008KT P6SM SCT080 SCT120=

USA.gov is the U.S. government's official web portal to all federal, state and local government web resources and services.